Time;durP1;ratioP1;P1;durP2;ratioP2;P2;SDS_P1;SDS_P2;PMS_P1;PMS_P2;Temp;Humidity;BMP_temperature;BMP_pressure;BME280_temperature;BME280_humidity;BME280_pressure;Samples;Min_cycle;Max_cycle;Signal;HPM_P1;HPM_P2
2022/04/30 00:00:10;;;;;;;5.70;2.42;;;7.10;99.90;;;;;;5039195;28;20032;-71
2022/04/30 00:02:36;;;;;;;5.05;2.17;;;7.00;99.90;;;;;;5066115;28;20107;-71
2022/04/30 00:05:02;;;;;;;5.78;2.00;;;7.10;99.90;;;;;;5065236;28;20120;-71
2022/04/30 00:07:28;;;;;;;6.57;2.45;;;7.00;99.90;;;;;;5066626;28;20521;-71
2022/04/30 00:09:53;;;;;;;3.50;1.63;;;7.00;99.90;;;;;;5063275;28;20036;-71
2022/04/30 00:12:19;;;;;;;3.10;1.75;;;7.00;99.90;;;;;;5066435;28;20436;-71
2022/04/30 00:14:49;;;;;;;5.20;2.30;;;7.00;99.90;;;;;;5064376;28;20032;-71
2022/04/30 00:17:15;;;;;;;5.65;2.60;;;7.00;99.90;;;;;;5065850;28;20680;-71
2022/04/30 00:19:40;;;;;;;4.20;1.77;;;7.00;99.90;;;;;;5063934;28;20045;-71
2022/04/30 00:22:08;;;;;;;5.25;2.00;;;7.00;99.90;;;;;;5065583;28;20049;-71
2022/04/30 00:24:35;;;;;;;4.45;2.03;;;6.90;99.90;;;;;;5064767;28;20399;-71
2022/04/30 00:27:01;;;;;;;4.53;1.67;;;7.00;99.90;;;;;;5065578;28;20037;-71
2022/04/30 00:29:29;;;;;;;8.30;2.53;;;7.00;99.90;;;;;;5047746;28;20048;-70
2022/04/30 00:31:55;;;;;;;5.65;2.03;;;6.90;99.90;;;;;;5049260;28;20413;-71
2022/04/30 00:34:22;;;;;;;6.75;2.10;;;6.90;99.90;;;;;;5064108;28;20047;-70
2022/04/30 00:36:47;;;;;;;3.50;2.05;;;6.90;99.90;;;;;;5047922;28;20151;-71
2022/04/30 00:39:13;;;;;;;4.25;1.98;;;6.90;99.90;;;;;;5064883;28;20115;-71
2022/04/30 00:41:43;;;;;;;4.25;1.77;;;6.90;99.90;;;;;;5063920;28;20036;-70
2022/04/30 00:44:09;;;;;;;3.55;1.63;;;6.90;99.90;;;;;;5065196;28;20502;-71
2022/04/30 00:46:34;;;;;;;4.35;2.05;;;6.90;99.90;;;;;;5064025;28;20032;-71
2022/04/30 00:49:01;;;;;;;4.50;2.08;;;6.90;99.90;;;;;;5044452;28;20509;-71
2022/04/30 00:51:28;;;;;;;4.05;2.15;;;6.80;99.90;;;;;;5064063;28;20044;-71
2022/04/30 00:53:55;;;;;;;5.30;1.95;;;6.80;99.90;;;;;;5065783;28;20028;-71
2022/04/30 00:56:29;;;;;;;5.53;2.30;;;6.80;99.90;;;;;;5048078;28;20056;-71
2022/04/30 00:58:56;;;;;;;3.50;1.67;;;6.80;99.90;;;;;;5078106;28;20047;-71
2022/04/30 01:01:23;;;;;;;2.92;1.92;;;6.80;99.90;;;;;;5065010;28;20110;-71
2022/04/30 01:03:48;;;;;;;3.65;2.00;;;6.80;99.90;;;;;;5062909;28;20051;-71
2022/04/30 01:06:15;;;;;;;3.58;2.08;;;6.70;99.90;;;;;;5064023;28;20041;-71
2022/04/30 01:08:41;;;;;;;4.75;2.15;;;6.70;99.90;;;;;;5064492;28;20060;-71
2022/04/30 01:11:06;;;;;;;3.85;1.85;;;6.70;99.90;;;;;;5051956;28;20175;-71
2022/04/30 01:13:34;;;;;;;5.60;2.10;;;6.70;99.90;;;;;;5064319;28;20581;-71
2022/04/30 01:16:05;;;;;;;3.95;2.25;;;6.60;99.90;;;;;;5048606;28;20519;-71
2022/04/30 01:18:34;;;;;;;6.53;2.65;;;6.70;99.90;;;;;;5063953;28;20036;-71
2022/04/30 01:21:03;;;;;;;3.42;1.63;;;6.70;99.90;;;;;;5063928;28;20127;-71
2022/04/30 01:23:31;;;;;;;3.88;2.00;;;6.70;99.90;;;;;;5064419;28;20033;-71
2022/04/30 01:25:57;;;;;;;4.28;2.35;;;6.60;99.90;;;;;;5064681;28;20549;-71
2022/04/30 01:28:23;;;;;;;3.65;2.15;;;6.60;99.90;;;;;;5064229;28;20162;-71
2022/04/30 01:30:49;;;;;;;4.63;1.90;;;6.60;99.90;;;;;;5064456;28;20120;-71
2022/04/30 01:38:58;;;;;;;6.95;1.95;;;6.50;99.90;;;;;;5029995;28;20135;-71
2022/04/30 01:41:24;;;;;;;3.33;1.95;;;6.50;99.90;;;;;;5046851;28;20043;-71
2022/04/30 01:43:51;;;;;;;5.60;1.63;;;6.50;99.90;;;;;;5061983;28;20040;-71
2022/04/30 01:46:16;;;;;;;3.45;1.83;;;6.40;99.90;;;;;;5066078;28;20058;-71
2022/04/30 01:48:43;;;;;;;3.03;1.80;;;6.30;99.90;;;;;;5049545;28;20115;-71
2022/04/30 01:51:12;;;;;;;3.00;1.65;;;6.30;99.90;;;;;;5068174;28;20036;-71
2022/04/30 01:53:39;;;;;;;6.78;1.77;;;6.30;99.90;;;;;;5043786;28;20090;-71
2022/04/30 01:56:05;;;;;;;2.78;1.45;;;6.20;99.90;;;;;;5067474;28;20048;-71
2022/04/30 01:58:30;;;;;;;5.85;1.73;;;6.20;99.90;;;;;;5063007;28;20819;-71
2022/04/30 02:00:56;;;;;;;4.60;1.85;;;6.10;99.90;;;;;;5051394;28;20145;-71
2022/04/30 02:03:22;;;;;;;4.43;1.85;;;6.10;99.90;;;;;;5067583;28;20607;-71
2022/04/30 02:05:47;;;;;;;5.18;1.63;;;6.10;99.90;;;;;;5066413;28;20044;-71
2022/04/30 02:08:18;;;;;;;3.33;1.90;;;6.10;99.90;;;;;;5050842;28;20049;-71
2022/04/30 02:10:47;;;;;;;3.75;2.55;;;6.00;99.90;;;;;;5067598;28;20501;-71
2022/04/30 02:13:16;;;;;;;2.20;1.25;;;6.00;99.90;;;;;;5064964;28;20067;-71
2022/04/30 02:15:45;;;;;;;3.83;1.83;;;6.00;99.90;;;;;;5063243;28;20086;-71
2022/04/30 02:18:13;;;;;;;4.38;1.85;;;6.00;99.90;;;;;;5068664;28;20549;-71
2022/04/30 02:20:42;;;;;;;3.05;1.88;;;6.00;99.90;;;;;;5050696;28;20024;-71
2022/04/30 02:23:09;;;;;;;4.00;2.05;;;6.00;99.90;;;;;;5051781;28;20044;-71
2022/04/30 02:25:36;;;;;;;3.55;1.65;;;6.00;99.90;;;;;;5050686;28;20070;-71
2022/04/30 02:28:08;;;;;;;3.35;1.65;;;6.00;99.90;;;;;;5051556;28;20033;-71
2022/04/30 02:30:37;;;;;;;4.05;2.22;;;5.90;99.90;;;;;;5066184;28;20037;-71
2022/04/30 02:33:06;;;;;;;4.85;2.10;;;5.90;99.90;;;;;;5068378;28;20046;-71
2022/04/30 02:35:34;;;;;;;6.28;2.55;;;5.90;99.90;;;;;;5067521;28;20107;-71
2022/04/30 02:38:01;;;;;;;2.45;1.15;;;5.90;99.90;;;;;;5049899;28;20048;-71
2022/04/30 02:40:29;;;;;;;2.72;1.27;;;5.90;99.90;;;;;;5063383;28;20127;-71
2022/04/30 02:43:08;;;;;;;8.00;1.95;;;5.80;99.90;;;;;;5067550;28;20418;-71
2022/04/30 02:45:35;;;;;;;3.33;2.05;;;5.80;99.90;;;;;;5066138;28;20041;-71
2022/04/30 02:48:02;;;;;;;3.53;1.58;;;5.90;99.90;;;;;;5068338;28;20037;-71
2022/04/30 02:50:29;;;;;;;4.18;1.50;;;5.90;99.90;;;;;;5066250;28;20041;-71
2022/04/30 02:52:55;;;;;;;3.35;1.45;;;5.90;99.90;;;;;;5067818;28;20036;-71
2022/04/30 02:55:22;;;;;;;3.45;1.98;;;5.90;99.90;;;;;;5050901;28;20041;-71
2022/04/30 03:00:44;;;;;;;3.10;1.50;;;5.90;99.90;;;;;;5064721;28;20465;-71
2022/04/30 03:03:12;;;;;;;4.20;1.75;;;5.90;99.90;;;;;;5068274;28;20044;-71
2022/04/30 03:05:43;;;;;;;3.20;1.40;;;5.90;99.90;;;;;;5066956;28;20096;-71
2022/04/30 03:08:18;;;;;;;4.22;2.38;;;5.90;99.90;;;;;;5066022;28;20037;-71
2022/04/30 03:10:45;;;;;;;4.00;2.38;;;5.80;99.90;;;;;;5048168;28;20501;-71
2022/04/30 03:13:13;;;;;;;2.53;1.30;;;5.80;99.90;;;;;;5063416;28;20075;-71
2022/04/30 03:15:43;;;;;;;3.75;1.50;;;5.80;99.90;;;;;;5049590;28;20111;-71
2022/04/30 03:23:39;;;;;;;2.60;1.08;;;5.70;99.90;;;;;;5066290;28;20067;-71
2022/04/30 03:26:08;;;;;;;3.92;1.73;;;5.60;99.90;;;;;;5066806;28;20486;-71
2022/04/30 03:28:36;;;;;;;3.33;1.10;;;5.60;99.90;;;;;;5065721;28;20043;-71
2022/04/30 03:31:05;;;;;;;4.45;2.20;;;5.60;99.90;;;;;;5065806;28;20040;-71
2022/04/30 03:33:31;;;;;;;4.30;1.80;;;5.60;99.90;;;;;;5066390;28;20112;-71
2022/04/30 03:35:57;;;;;;;4.68;2.03;;;5.60;99.90;;;;;;5066755;28;20042;-71
2022/04/30 03:38:23;;;;;;;4.03;1.58;;;5.60;99.90;;;;;;5065928;28;20498;-71
2022/04/30 03:40:49;;;;;;;2.60;1.38;;;5.60;99.90;;;;;;5065870;28;20040;-71
2022/04/30 03:43:18;;;;;;;10.07;2.17;;;5.50;99.90;;;;;;5058211;28;20441;-71
2022/04/30 03:45:44;;;;;;;4.28;2.00;;;5.60;99.90;;;;;;5062428;28;20044;-71
2022/04/30 03:48:12;;;;;;;3.60;1.50;;;5.60;99.90;;;;;;5066022;28;20115;-71
2022/04/30 03:50:38;;;;;;;4.32;2.25;;;5.60;99.90;;;;;;5066600;28;20052;-71
2022/04/30 03:53:04;;;;;;;3.65;2.03;;;5.60;99.90;;;;;;5065604;28;20063;-71
2022/04/30 03:55:30;;;;;;;5.35;1.60;;;5.60;99.90;;;;;;5066805;28;20037;-71
2022/04/30 03:57:56;;;;;;;5.18;1.92;;;5.60;99.90;;;;;;5066141;28;20473;-71
2022/04/30 04:00:22;;;;;;;3.15;1.30;;;5.60;99.90;;;;;;5065708;28;20036;-71
2022/04/30 04:02:48;;;;;;;4.55;1.73;;;5.60;99.90;;;;;;5065363;28;20093;-71
2022/04/30 04:05:13;;;;;;;3.55;1.65;;;5.60;99.90;;;;;;5049976;28;20044;-71
2022/04/30 04:07:40;;;;;;;2.72;1.30;;;5.60;99.90;;;;;;5046905;28;20108;-72
2022/04/30 04:10:06;;;;;;;4.22;1.98;;;5.60;99.90;;;;;;5064226;28;20111;-71
2022/04/30 04:12:32;;;;;;;4.20;2.50;;;5.70;99.90;;;;;;5064418;28;20033;-71
2022/04/30 04:17:42;;;;;;;3.03;1.30;;;5.70;99.90;;;;;;5064987;28;20041;-71
2022/04/30 04:20:09;;;;;;;2.28;1.42;;;5.60;99.90;;;;;;5063771;28;20024;-71
2022/04/30 04:22:36;;;;;;;2.65;1.38;;;5.60;99.90;;;;;;5065158;28;20510;-71
2022/04/30 04:27:47;;;;;;;3.90;1.80;;;5.60;99.90;;;;;;5065749;28;20048;-71
2022/04/30 04:30:13;;;;;;;3.78;1.70;;;5.60;99.90;;;;;;5047191;28;20040;-71
2022/04/30 04:32:39;;;;;;;4.10;1.48;;;5.50;99.90;;;;;;5066240;28;20060;-71
2022/04/30 04:35:05;;;;;;;3.67;1.73;;;5.60;99.90;;;;;;5064867;28;20036;-71
2022/04/30 04:37:31;;;;;;;2.72;1.70;;;5.60;99.90;;;;;;5066326;28;20040;-71
2022/04/30 04:39:57;;;;;;;10.20;2.60;;;5.60;99.90;;;;;;5064743;28;20514;-71
2022/04/30 04:42:23;;;;;;;3.28;1.90;;;5.60;99.90;;;;;;5048069;28;20036;-71
2022/04/30 04:44:48;;;;;;;4.35;1.52;;;5.60;99.90;;;;;;5065196;28;20089;-71
2022/04/30 04:47:14;;;;;;;3.60;1.90;;;5.70;99.90;;;;;;5064232;28;20516;-71
2022/04/30 04:49:41;;;;;;;3.65;1.58;;;5.60;99.90;;;;;;5048171;28;20461;-71
2022/04/30 04:52:11;;;;;;;2.75;1.42;;;5.60;99.90;;;;;;5045469;28;20036;-71
2022/04/30 04:54:36;;;;;;;3.90;1.77;;;5.50;99.90;;;;;;5065232;28;20028;-71
2022/04/30 04:57:02;;;;;;;3.65;1.77;;;5.50;99.90;;;;;;5065338;28;20037;-71
2022/04/30 04:59:28;;;;;;;2.78;1.60;;;5.50;99.90;;;;;;5063735;28;20481;-71
2022/04/30 05:01:54;;;;;;;3.22;1.65;;;5.50;99.90;;;;;;5066091;28;20040;-71
2022/04/30 05:04:20;;;;;;;4.55;2.13;;;5.50;99.90;;;;;;5064329;28;20040;-71
2022/04/30 05:06:48;;;;;;;3.78;1.63;;;5.50;99.90;;;;;;5081205;28;20086;-71
2022/04/30 05:09:14;;;;;;;3.08;1.92;;;5.60;99.90;;;;;;5065014;28;20056;-71
2022/04/30 05:11:40;;;;;;;3.38;1.40;;;5.70;99.90;;;;;;5064484;28;20394;-71
2022/04/30 05:14:06;;;;;;;5.03;1.70;;;5.70;99.90;;;;;;5064257;28;20044;-71
2022/04/30 05:16:32;;;;;;;3.67;2.33;;;5.70;99.90;;;;;;5064590;28;20032;-71
2022/04/30 05:18:57;;;;;;;7.80;1.85;;;5.70;99.90;;;;;;5047638;28;20043;-71
2022/04/30 05:21:25;;;;;;;3.63;1.33;;;5.80;99.90;;;;;;5064865;28;20050;-71
2022/04/30 05:23:50;;;;;;;3.72;1.67;;;5.80;99.90;;;;;;5063231;28;20115;-71
2022/04/30 05:26:16;;;;;;;5.03;2.47;;;5.90;99.90;;;;;;5065947;28;20124;-71
2022/04/30 05:28:41;;;;;;;5.28;2.33;;;5.90;99.90;;;;;;5063449;28;20036;-71
2022/04/30 05:31:07;;;;;;;3.75;2.08;;;5.90;99.90;;;;;;5047541;28;20074;-71
2022/04/30 05:33:37;;;;;;;4.35;2.50;;;6.00;99.90;;;;;;5066611;28;20055;-71
2022/04/30 05:36:06;;;;;;;12.30;2.85;;;6.00;99.90;;;;;;5066044;28;20101;-71
2022/04/30 05:38:31;;;;;;;6.13;1.98;;;6.00;99.90;;;;;;5044166;28;20098;-71
2022/04/30 05:40:57;;;;;;;5.07;1.98;;;6.10;99.90;;;;;;5045238;28;20057;-71
2022/04/30 05:43:22;;;;;;;2.88;1.75;;;6.10;99.90;;;;;;5045606;28;20144;-71
2022/04/30 05:45:48;;;;;;;4.63;1.80;;;6.20;99.90;;;;;;5064861;28;20089;-71
2022/04/30 05:48:13;;;;;;;4.10;2.00;;;6.20;99.90;;;;;;5063673;28;20044;-71
2022/04/30 05:50:39;;;;;;;4.55;2.47;;;6.30;99.90;;;;;;5048203;28;20490;-71
2022/04/30 05:53:05;;;;;;;5.68;2.70;;;6.30;99.90;;;;;;5063464;28;20370;-71
2022/04/30 05:55:31;;;;;;;4.53;1.55;;;6.40;99.90;;;;;;5064054;28;20059;-71
2022/04/30 05:57:57;;;;;;;4.15;2.30;;;6.50;99.90;;;;;;5046499;28;20051;-72
2022/04/30 06:00:23;;;;;;;4.85;2.40;;;6.50;99.90;;;;;;5047411;28;20042;-71
2022/04/30 06:02:49;;;;;;;5.50;2.78;;;6.50;99.90;;;;;;5061860;28;20052;-71
2022/04/30 06:05:16;;;;;;;5.18;2.33;;;6.60;99.90;;;;;;5062316;28;20055;-71
2022/04/30 06:07:42;;;;;;;3.70;1.75;;;6.60;99.90;;;;;;5062595;28;20040;-71
2022/04/30 06:10:08;;;;;;;3.35;2.15;;;6.70;99.90;;;;;;5063300;28;20059;-71
2022/04/30 06:12:36;;;;;;;6.55;1.95;;;6.70;99.90;;;;;;5047547;28;20032;-72
2022/04/30 06:15:03;;;;;;;5.00;2.38;;;6.80;99.90;;;;;;5062674;28;20040;-72
2022/04/30 06:17:29;;;;;;;3.28;1.63;;;6.80;99.90;;;;;;5056753;28;20041;-71
2022/04/30 06:19:54;;;;;;;4.97;2.30;;;6.90;99.90;;;;;;5061692;28;20111;-70
2022/04/30 06:22:20;;;;;;;5.22;2.67;;;6.90;99.90;;;;;;5061986;28;20153;-71
2022/04/30 06:24:45;;;;;;;4.85;2.38;;;6.90;99.90;;;;;;5045100;28;20040;-71
2022/04/30 06:27:11;;;;;;;5.15;2.38;;;7.00;99.90;;;;;;5062876;28;20044;-72
2022/04/30 06:29:38;;;;;;;3.90;2.05;;;7.00;99.90;;;;;;5044734;28;20073;-71
2022/04/30 06:32:04;;;;;;;3.97;1.95;;;7.10;99.90;;;;;;5058841;28;20045;-71
2022/04/30 06:34:30;;;;;;;5.13;2.58;;;7.10;99.90;;;;;;5051010;28;20032;-71
2022/04/30 06:36:56;;;;;;;5.50;2.75;;;7.10;99.90;;;;;;5047081;28;20071;-72
2022/04/30 06:39:21;;;;;;;4.32;1.85;;;7.20;99.90;;;;;;5067199;28;20110;-72
2022/04/30 06:41:47;;;;;;;9.18;2.78;;;7.20;99.90;;;;;;5061263;28;20040;-71
2022/04/30 06:44:12;;;;;;;5.55;2.75;;;7.20;99.90;;;;;;5065428;28;20468;-71
2022/04/30 06:46:38;;;;;;;4.38;2.15;;;7.30;99.90;;;;;;5064605;28;20044;-71
2022/04/30 06:49:04;;;;;;;3.88;2.30;;;7.30;99.90;;;;;;5064634;28;20482;-71
2022/04/30 06:51:29;;;;;;;8.02;2.53;;;7.30;99.90;;;;;;5065935;28;20202;-71
2022/04/30 06:59:24;;;;;;;2.92;1.63;;;7.40;99.90;;;;;;5076571;28;20040;-71
2022/04/30 07:01:57;;;;;;;4.15;2.08;;;7.50;99.90;;;;;;5064749;28;20037;-71
2022/04/30 07:04:24;;;;;;;5.13;2.55;;;7.50;99.90;;;;;;5049591;28;20072;-71
2022/04/30 07:06:50;;;;;;;5.53;2.47;;;7.60;99.90;;;;;;5062139;28;20060;-71
2022/04/30 07:09:16;;;;;;;2.83;1.88;;;7.60;99.90;;;;;;5060606;28;20040;-71
2022/04/30 07:11:42;;;;;;;4.90;2.20;;;7.70;99.90;;;;;;5060920;28;20068;-73
2022/04/30 07:14:08;;;;;;;3.78;2.10;;;7.70;99.90;;;;;;5061124;28;20041;-72
2022/04/30 07:16:33;;;;;;;8.85;2.28;;;7.70;99.90;;;;;;5065829;28;20060;-72
2022/04/30 07:19:00;;;;;;;4.97;2.67;;;7.70;99.90;;;;;;5068001;28;20721;-72
2022/04/30 07:21:28;;;;;;;7.07;1.63;;;7.80;99.90;;;;;;5069409;28;20047;-72
2022/04/30 07:23:54;;;;;;;3.50;1.92;;;7.80;99.90;;;;;;5068804;28;20047;-72
2022/04/30 07:26:20;;;;;;;4.28;2.25;;;7.90;99.90;;;;;;5069272;28;20036;-72
2022/04/30 07:28:46;;;;;;;3.80;1.88;;;7.90;99.90;;;;;;5048570;28;20532;-72
2022/04/30 07:31:12;;;;;;;4.03;2.05;;;8.00;99.90;;;;;;5065451;28;20064;-72
2022/04/30 07:33:38;;;;;;;4.90;2.38;;;8.00;99.90;;;;;;5051155;28;20037;-72
2022/04/30 07:36:04;;;;;;;9.20;1.90;;;8.10;99.90;;;;;;5068764;28;20059;-72
2022/04/30 07:38:30;;;;;;;4.88;2.38;;;8.20;99.90;;;;;;5051743;28;20052;-72
2022/04/30 07:40:56;;;;;;;4.63;2.05;;;8.30;99.90;;;;;;5051139;28;20135;-72
2022/04/30 07:43:22;;;;;;;3.80;2.13;;;8.30;99.90;;;;;;5044588;28;20739;-72
2022/04/30 07:45:48;;;;;;;3.20;1.88;;;8.40;99.90;;;;;;5063228;28;20041;-73
2022/04/30 07:48:13;;;;;;;4.35;2.22;;;8.50;99.90;;;;;;5043100;28;20036;-71
2022/04/30 07:50:41;;;;;;;3.47;2.25;;;8.50;99.90;;;;;;5057786;28;20098;-72
2022/04/30 07:53:08;;;;;;;3.65;2.40;;;8.60;99.90;;;;;;5048090;28;20041;-72
2022/04/30 07:55:34;;;;;;;7.82;2.58;;;8.70;99.90;;;;;;5062873;28;20116;-72
2022/04/30 07:58:02;;;;;;;5.50;2.28;;;8.70;99.90;;;;;;5044328;28;20043;-72
2022/04/30 08:00:28;;;;;;;4.50;1.92;;;8.80;99.90;;;;;;5064977;28;20570;-72
2022/04/30 08:02:55;;;;;;;4.47;2.50;;;8.90;99.90;;;;;;5063182;28;20071;-72
2022/04/30 08:05:21;;;;;;;5.28;2.13;;;9.00;99.90;;;;;;5048676;28;20631;-72
2022/04/30 08:07:47;;;;;;;9.10;2.15;;;9.10;99.90;;;;;;5064215;28;20036;-72
2022/04/30 08:10:12;;;;;;;4.22;2.10;;;9.20;99.90;;;;;;5043328;28;20047;-72
2022/04/30 08:12:38;;;;;;;3.80;2.00;;;9.20;99.90;;;;;;5045320;28;20090;-72
2022/04/30 08:15:04;;;;;;;3.72;2.08;;;9.30;99.90;;;;;;5063936;28;20119;-72
2022/04/30 08:17:29;;;;;;;4.60;2.33;;;9.40;99.90;;;;;;5064352;28;20482;-72
2022/04/30 08:19:56;;;;;;;3.28;1.60;;;9.40;99.90;;;;;;5060035;28;20040;-72
2022/04/30 08:22:22;;;;;;;3.85;2.00;;;9.40;99.90;;;;;;5066277;28;20040;-72
2022/04/30 08:24:47;;;;;;;10.18;1.95;;;9.50;99.90;;;;;;5044024;28;20055;-72
2022/04/30 08:27:13;;;;;;;2.50;1.40;;;9.50;99.90;;;;;;5062983;28;20048;-72
2022/04/30 08:29:38;;;;;;;3.30;1.98;;;9.60;99.90;;;;;;5063099;28;20064;-72
2022/04/30 08:32:04;;;;;;;5.03;1.85;;;9.60;99.90;;;;;;5041355;28;20090;-71
2022/04/30 08:34:31;;;;;;;3.00;1.75;;;9.60;99.90;;;;;;5058996;28;20029;-72
2022/04/30 08:36:56;;;;;;;3.70;1.95;;;9.60;99.90;;;;;;5065391;28;20060;-72
2022/04/30 08:39:23;;;;;;;3.47;1.60;;;9.70;99.90;;;;;;5066557;28;20039;-72
2022/04/30 08:41:48;;;;;;;2.75;1.80;;;9.70;99.90;;;;;;5066832;28;20121;-72
2022/04/30 08:44:15;;;;;;;4.53;1.45;;;9.70;99.90;;;;;;5066762;28;20083;-72
2022/04/30 08:46:42;;;;;;;3.28;1.70;;;9.80;99.90;;;;;;5066857;28;20521;-72
2022/04/30 08:49:09;;;;;;;2.97;1.65;;;9.80;99.90;;;;;;5067239;28;20048;-72
2022/04/30 08:51:35;;;;;;;5.50;1.42;;;9.90;99.90;;;;;;5066097;28;20064;-72
2022/04/30 08:54:00;;;;;;;4.32;1.77;;;10.00;99.90;;;;;;5065919;28;20117;-72
2022/04/30 08:56:26;;;;;;;2.58;1.33;;;10.10;99.90;;;;;;5065988;28;20032;-72
2022/04/30 08:59:04;;;;;;;2.55;1.42;;;10.20;99.90;;;;;;5049837;28;20045;-72
2022/04/30 09:01:32;;;;;;;4.07;1.40;;;10.20;99.90;;;;;;5066579;28;20044;-72
2022/04/30 09:03:58;;;;;;;1.70;1.02;;;10.30;99.90;;;;;;5050073;28;20052;-72
2022/04/30 09:06:25;;;;;;;3.58;2.22;;;10.30;99.90;;;;;;5050130;28;20052;-72
2022/04/30 09:08:52;;;;;;;2.22;1.35;;;10.30;99.90;;;;;;5064845;28;20041;-72
2022/04/30 09:11:26;;;;;;;2.58;1.60;;;10.40;99.90;;;;;;5063200;28;20048;-72
2022/04/30 09:13:52;;;;;;;3.97;1.60;;;10.40;99.90;;;;;;5057945;28;20502;-72
2022/04/30 09:16:22;;;;;;;2.75;1.50;;;10.40;99.90;;;;;;5047276;28;20119;-72
2022/04/30 09:18:52;;;;;;;5.97;1.50;;;10.40;99.90;;;;;;5048128;28;20068;-72
2022/04/30 09:21:18;;;;;;;3.90;1.33;;;10.40;99.90;;;;;;5063569;28;20131;-72
2022/04/30 09:23:45;;;;;;;2.40;1.10;;;10.40;99.90;;;;;;5065581;28;20505;-72
2022/04/30 09:26:11;;;;;;;2.33;1.13;;;10.30;99.90;;;;;;5040284;28;20037;-72
2022/04/30 09:28:39;;;;;;;3.65;1.30;;;10.40;99.90;;;;;;5059856;28;20049;-72
2022/04/30 09:31:09;;;;;;;1.70;1.10;;;10.40;99.90;;;;;;5060120;28;20072;-72
2022/04/30 09:33:43;;;;;;;2.03;1.20;;;10.40;99.90;;;;;;5064750;28;20032;-72
2022/04/30 09:38:54;;;;;;;3.15;1.33;;;10.40;99.90;;;;;;5063024;28;20047;-72
2022/04/30 09:41:24;;;;;;;2.15;1.40;;;10.40;99.90;;;;;;5063759;28;20048;-72
2022/04/30 09:44:00;;;;;;;2.88;1.27;;;10.40;99.90;;;;;;5063702;28;20486;-72
2022/04/30 09:46:27;;;;;;;2.42;1.50;;;10.40;99.90;;;;;;5060833;28;20043;-72
2022/04/30 09:54:22;;;;;;;2.38;1.15;;;10.50;99.90;;;;;;5063402;28;20498;-72
2022/04/30 09:56:51;;;;;;;2.47;1.17;;;10.50;99.90;;;;;;5063459;28;20037;-72
2022/04/30 09:59:20;;;;;;;2.38;1.15;;;10.50;99.90;;;;;;5064021;28;20490;-72
2022/04/30 10:01:48;;;;;;;1.88;1.23;;;10.50;99.90;;;;;;5065690;28;20045;-73
2022/04/30 10:04:15;;;;;;;3.17;1.00;;;10.60;99.90;;;;;;5064663;28;20060;-72
2022/04/30 10:06:42;;;;;;;2.50;1.00;;;10.60;99.90;;;;;;5068426;28;20036;-72
2022/04/30 10:09:09;;;;;;;3.15;1.27;;;10.70;99.90;;;;;;5068609;28;20045;-72
2022/04/30 10:12:08;;;;;;;1.98;1.00;;;10.80;99.90;;;;;;5069285;28;20128;-72
2022/04/30 10:14:54;;;;;;;2.22;1.25;;;10.80;99.50;;;;;;5051514;28;20033;-73
2022/04/30 10:17:23;;;;;;;2.17;1.30;;;10.80;99.90;;;;;;5052836;28;20041;-73
2022/04/30 10:20:01;;;;;;;2.38;1.42;;;10.90;99.90;;;;;;5069896;28;20430;-72
2022/04/30 10:22:27;;;;;;;2.00;1.15;;;11.00;99.40;;;;;;5069456;28;20127;-72
2022/04/30 10:24:58;;;;;;;1.75;1.08;;;10.90;99.90;;;;;;5070064;28;20395;-72
2022/04/30 10:27:36;;;;;;;2.45;1.15;;;11.00;99.90;;;;;;5051365;28;20047;-72
2022/04/30 10:30:03;;;;;;;2.15;1.00;;;11.00;99.90;;;;;;5066998;28;20521;-72
2022/04/30 10:32:35;;;;;;;1.67;1.13;;;11.10;99.90;;;;;;5069998;28;20127;-73
2022/04/30 10:35:02;;;;;;;5.40;1.60;;;11.10;99.50;;;;;;5069287;28;20040;-73
2022/04/30 10:37:35;;;;;;;2.70;1.05;;;11.10;99.90;;;;;;5068560;28;20410;-72
2022/04/30 10:40:09;;;;;;;2.35;1.30;;;11.00;98.20;;;;;;5051613;28;20086;-72
2022/04/30 10:42:42;;;;;;;1.98;0.98;;;11.00;98.30;;;;;;5069093;28;20068;-72
2022/04/30 10:45:15;;;;;;;2.58;1.65;;;10.90;98.20;;;;;;5069077;28;20055;-72
2022/04/30 10:47:56;;;;;;;3.03;1.30;;;10.90;98.70;;;;;;5069867;28;20571;-72
2022/04/30 10:50:25;;;;;;;3.00;1.33;;;10.80;96.40;;;;;;5068323;28;20102;-72
2022/04/30 10:52:54;;;;;;;2.72;1.02;;;10.80;97.70;;;;;;5054263;28;20040;-72
2022/04/30 10:55:20;;;;;;;1.85;0.80;;;10.80;98.30;;;;;;5070525;28;20544;-73
2022/04/30 10:57:47;;;;;;;2.40;1.02;;;10.70;98.20;;;;;;5068509;28;20036;-72
2022/04/30 11:00:14;;;;;;;2.05;1.00;;;10.70;97.60;;;;;;5068623;28;20041;-72
2022/04/30 11:02:40;;;;;;;2.45;1.35;;;10.70;97.40;;;;;;5068632;28;20114;-72
2022/04/30 11:05:18;;;;;;;3.20;1.10;;;10.70;97.60;;;;;;5052041;28;20040;-72
2022/04/30 11:07:45;;;;;;;4.40;1.63;;;10.70;96.00;;;;;;5068769;28;20051;-72
2022/04/30 11:10:11;;;;;;;1.98;0.93;;;10.60;97.60;;;;;;5052552;28;20052;-72
2022/04/30 11:12:37;;;;;;;2.92;1.48;;;10.60;98.00;;;;;;5068742;28;20612;-72
2022/04/30 11:15:03;;;;;;;4.22;1.45;;;10.60;98.60;;;;;;5049800;28;20052;-73
2022/04/30 11:17:29;;;;;;;1.73;1.10;;;10.60;98.90;;;;;;5068485;28;20115;-72
2022/04/30 11:19:55;;;;;;;2.20;1.20;;;10.60;99.50;;;;;;5052406;28;20518;-72
2022/04/30 11:22:22;;;;;;;2.70;1.42;;;10.60;98.70;;;;;;5050475;28;20044;-72
2022/04/30 11:24:48;;;;;;;2.72;1.30;;;10.60;99.00;;;;;;5067135;28;20055;-73
2022/04/30 11:27:14;;;;;;;2.92;1.52;;;10.60;99.00;;;;;;5049435;28;20043;-71
2022/04/30 11:29:51;;;;;;;3.67;1.77;;;10.60;99.30;;;;;;5064026;28;20036;-72
2022/04/30 11:32:22;;;;;;;2.83;1.58;;;10.60;98.70;;;;;;5068155;28;20063;-72
2022/04/30 11:34:48;;;;;;;3.58;1.52;;;10.50;98.70;;;;;;5068083;28;20249;-72
2022/04/30 11:37:13;;;;;;;2.13;1.25;;;10.50;99.10;;;;;;5051076;28;20097;-72
2022/04/30 11:39:39;;;;;;;4.13;1.38;;;10.50;99.20;;;;;;5052068;28;20044;-72
2022/04/30 11:42:05;;;;;;;2.67;1.40;;;10.50;99.10;;;;;;5051343;28;20080;-72
2022/04/30 11:44:30;;;;;;;3.08;1.52;;;10.50;98.80;;;;;;5066511;28;20048;-72
2022/04/30 11:46:57;;;;;;;1.95;0.98;;;10.50;99.00;;;;;;5051124;28;20044;-72
2022/04/30 11:49:24;;;;;;;4.60;1.52;;;10.50;99.10;;;;;;5051600;28;20040;-72
2022/04/30 11:51:51;;;;;;;2.67;1.58;;;10.50;99.10;;;;;;5063543;28;20048;-72
2022/04/30 11:54:19;;;;;;;3.75;2.20;;;10.50;99.20;;;;;;5066785;28;20032;-72
2022/04/30 11:56:46;;;;;;;2.65;1.30;;;10.50;99.50;;;;;;5048359;28;20032;-72
2022/04/30 11:59:12;;;;;;;3.38;1.58;;;10.50;99.30;;;;;;5048955;28;20061;-72
2022/04/30 12:01:39;;;;;;;3.90;1.88;;;10.50;99.70;;;;;;5066956;28;20036;-72
2022/04/30 12:04:09;;;;;;;3.88;1.65;;;10.50;99.70;;;;;;5068154;28;20442;-72
2022/04/30 12:06:38;;;;;;;3.97;1.15;;;10.50;99.20;;;;;;5050377;28;20036;-72
2022/04/30 12:09:18;;;;;;;3.20;1.25;;;10.60;99.40;;;;;;5067742;28;20425;-72
2022/04/30 12:11:47;;;;;;;2.83;1.42;;;10.60;99.20;;;;;;5066607;28;20032;-72
2022/04/30 12:14:12;;;;;;;2.53;1.33;;;10.60;99.30;;;;;;5066861;28;20040;-72
2022/04/30 12:16:42;;;;;;;2.40;1.33;;;10.60;99.20;;;;;;5067074;28;20166;-73
2022/04/30 12:25:12;;;;;;;5.25;1.08;;;10.60;97.60;;;;;;5067588;28;20048;-70
2022/04/30 12:27:40;;;;;;;3.17;1.17;;;10.60;98.20;;;;;;5065245;28;20037;-72
2022/04/30 12:30:16;;;;;;;1.60;0.90;;;10.60;98.40;;;;;;5064736;28;20127;-72
2022/04/30 12:32:59;;;;;;;2.63;1.33;;;10.60;97.90;;;;;;5067056;28;20040;-72
2022/04/30 12:35:33;;;;;;;2.08;1.20;;;10.60;97.30;;;;;;5066550;28;20038;-72
2022/04/30 12:38:06;;;;;;;7.18;1.83;;;10.60;97.50;;;;;;5066542;28;20063;-72
2022/04/30 12:40:33;;;;;;;3.05;1.50;;;10.70;98.20;;;;;;5050682;28;20086;-72
2022/04/30 12:42:59;;;;;;;3.03;1.30;;;10.70;97.70;;;;;;5067095;28;20170;-72
2022/04/30 12:45:25;;;;;;;1.48;1.10;;;10.70;97.80;;;;;;5049794;28;20601;-72
2022/04/30 12:47:51;;;;;;;2.15;1.13;;;10.70;97.60;;;;;;5050263;28;20522;-72
2022/04/30 12:50:17;;;;;;;4.72;1.25;;;10.70;97.50;;;;;;5049790;28;20048;-73
2022/04/30 12:52:43;;;;;;;2.85;1.42;;;10.70;97.60;;;;;;5066819;28;20041;-72
2022/04/30 12:55:11;;;;;;;2.05;1.00;;;10.70;97.80;;;;;;5066832;28;20032;-72
2022/04/30 12:57:38;;;;;;;2.33;1.15;;;10.70;97.60;;;;;;5050217;28;20111;-72
2022/04/30 13:00:05;;;;;;;1.20;0.77;;;10.80;97.20;;;;;;5065011;28;20043;-72
2022/04/30 13:02:31;;;;;;;1.95;1.05;;;10.80;96.60;;;;;;5049081;28;20044;-72
2022/04/30 13:04:56;;;;;;;2.78;1.35;;;10.80;96.20;;;;;;5065546;28;20044;-72
2022/04/30 13:07:22;;;;;;;1.92;0.95;;;10.80;95.60;;;;;;5065236;28;20044;-72
2022/04/30 13:15:16;;;;;;;3.05;1.38;;;10.80;96.60;;;;;;5064952;28;20040;-72
2022/04/30 13:17:42;;;;;;;2.70;1.40;;;10.80;96.40;;;;;;5050413;28;20058;-72
2022/04/30 13:20:10;;;;;;;3.47;1.67;;;10.80;96.70;;;;;;5048795;28;20048;-72
2022/04/30 13:22:36;;;;;;;2.30;1.35;;;10.80;96.60;;;;;;5066485;28;20123;-72
2022/04/30 13:25:02;;;;;;;1.63;1.13;;;10.80;96.60;;;;;;5066760;28;20182;-72
2022/04/30 13:27:27;;;;;;;3.45;1.83;;;10.80;96.30;;;;;;5047713;28;20039;-72
2022/04/30 13:29:53;;;;;;;3.05;1.23;;;10.80;96.10;;;;;;5065589;28;20048;-72
2022/04/30 13:32:19;;;;;;;4.30;1.40;;;10.90;96.20;;;;;;5049499;28;20128;-72
2022/04/30 13:34:44;;;;;;;2.58;1.40;;;10.90;96.50;;;;;;5063895;28;20111;-73
2022/04/30 13:37:10;;;;;;;2.33;1.33;;;10.90;96.50;;;;;;5065900;28;20045;-72